sensor_id;sensor_type;location;lat;lon;timestamp;temperature;humidity
80701;DHT22;71609;42.630;23.380;2024-01-07T00:00:22;20.20;39.20
80701;DHT22;71609;42.630;23.380;2024-01-07T00:02:47;20.30;39.20
80701;DHT22;71609;42.630;23.380;2024-01-07T00:05:13;20.20;39.20
80701;DHT22;71609;42.630;23.380;2024-01-07T00:07:39;20.20;39.20
80701;DHT22;71609;42.630;23.380;2024-01-07T00:10:05;20.20;39.10
80701;DHT22;71609;42.630;23.380;2024-01-07T00:12:31;20.20;39.20
80701;DHT22;71609;42.630;23.380;2024-01-07T00:14:57;20.20;39.10
80701;DHT22;71609;42.630;23.380;2024-01-07T00:17:23;20.20;39.20
80701;DHT22;71609;42.630;23.380;2024-01-07T00:19:49;20.20;39.20
80701;DHT22;71609;42.630;23.380;2024-01-07T00:22:15;20.20;39.20
80701;DHT22;71609;42.630;23.380;2024-01-07T00:24:40;20.20;39.30
80701;DHT22;71609;42.630;23.380;2024-01-07T00:27:06;20.20;39.30
80701;DHT22;71609;42.630;23.380;2024-01-07T00:29:34;20.20;39.20
80701;DHT22;71609;42.630;23.380;2024-01-07T00:32:01;20.20;39.30
80701;DHT22;71609;42.630;23.380;2024-01-07T00:34:27;20.20;39.30
80701;DHT22;71609;42.630;23.380;2024-01-07T00:36:53;20.20;39.30
80701;DHT22;71609;42.630;23.380;2024-01-07T00:39:18;20.20;39.20
80701;DHT22;71609;42.630;23.380;2024-01-07T00:41:44;20.20;39.30
80701;DHT22;71609;42.630;23.380;2024-01-07T00:44:10;20.20;39.40
80701;DHT22;71609;42.630;23.380;2024-01-07T00:46:35;20.20;39.30
80701;DHT22;71609;42.630;23.380;2024-01-07T00:49:01;20.20;39.20
80701;DHT22;71609;42.630;23.380;2024-01-07T00:51:27;20.20;39.30
80701;DHT22;71609;42.630;23.380;2024-01-07T00:53:53;20.20;39.30
80701;DHT22;71609;42.630;23.380;2024-01-07T00:56:18;20.20;39.30
80701;DHT22;71609;42.630;23.380;2024-01-07T00:58:44;20.20;39.30
80701;DHT22;71609;42.630;23.380;2024-01-07T01:01:10;20.20;39.30
80701;DHT22;71609;42.630;23.380;2024-01-07T01:03:35;20.20;39.30
80701;DHT22;71609;42.630;23.380;2024-01-07T01:06:01;20.20;39.30
80701;DHT22;71609;42.630;23.380;2024-01-07T01:08:28;20.20;39.30
80701;DHT22;71609;42.630;23.380;2024-01-07T01:10:53;20.20;39.30
80701;DHT22;71609;42.630;23.380;2024-01-07T01:13:19;20.20;39.30
80701;DHT22;71609;42.630;23.380;2024-01-07T01:15:45;20.20;39.40
80701;DHT22;71609;42.630;23.380;2024-01-07T01:18:11;20.20;39.30
80701;DHT22;71609;42.630;23.380;2024-01-07T01:20:36;20.10;39.40
80701;DHT22;71609;42.630;23.380;2024-01-07T01:23:02;20.20;39.40
80701;DHT22;71609;42.630;23.380;2024-01-07T01:25:28;20.20;39.40
80701;DHT22;71609;42.630;23.380;2024-01-07T01:27:56;20.20;39.40
80701;DHT22;71609;42.630;23.380;2024-01-07T01:30:21;20.20;39.30
80701;DHT22;71609;42.630;23.380;2024-01-07T01:32:47;20.20;39.40
80701;DHT22;71609;42.630;23.380;2024-01-07T01:35:13;20.20;39.30
80701;DHT22;71609;42.630;23.380;2024-01-07T01:37:39;20.20;39.40
80701;DHT22;71609;42.630;23.380;2024-01-07T01:40:05;20.20;39.40
80701;DHT22;71609;42.630;23.380;2024-01-07T01:42:31;20.20;39.40
80701;DHT22;71609;42.630;23.380;2024-01-07T01:44:56;20.20;39.40
80701;DHT22;71609;42.630;23.380;2024-01-07T01:47:25;20.20;39.40
80701;DHT22;71609;42.630;23.380;2024-01-07T01:49:50;20.20;39.30
80701;DHT22;71609;42.630;23.380;2024-01-07T01:52:16;20.20;39.40
80701;DHT22;71609;42.630;23.380;2024-01-07T01:54:42;20.20;39.50
80701;DHT22;71609;42.630;23.380;2024-01-07T01:57:13;20.20;39.40
80701;DHT22;71609;42.630;23.380;2024-01-07T01:59:42;20.20;39.40
80701;DHT22;71609;42.630;23.380;2024-01-07T02:02:08;20.20;39.40
80701;DHT22;71609;42.630;23.380;2024-01-07T02:04:34;20.20;39.40
80701;DHT22;71609;42.630;23.380;2024-01-07T02:07:00;20.10;39.40
80701;DHT22;71609;42.630;23.380;2024-01-07T02:09:26;20.20;39.40
80701;DHT22;71609;42.630;23.380;2024-01-07T02:12:04;20.20;39.50
80701;DHT22;71609;42.630;23.380;2024-01-07T02:14:30;20.10;39.40
80701;DHT22;71609;42.630;23.380;2024-01-07T02:16:56;20.20;39.50
80701;DHT22;71609;42.630;23.380;2024-01-07T02:19:22;20.20;39.50
80701;DHT22;71609;42.630;23.380;2024-01-07T02:21:50;20.10;39.40
80701;DHT22;71609;42.630;23.380;2024-01-07T02:24:17;20.20;39.50
80701;DHT22;71609;42.630;23.380;2024-01-07T02:26:43;20.20;39.50
80701;DHT22;71609;42.630;23.380;2024-01-07T02:29:09;20.10;39.40
80701;DHT22;71609;42.630;23.380;2024-01-07T02:31:35;20.10;39.40
80701;DHT22;71609;42.630;23.380;2024-01-07T02:34:00;20.10;39.50
80701;DHT22;71609;42.630;23.380;2024-01-07T02:36:26;20.10;39.50
80701;DHT22;71609;42.630;23.380;2024-01-07T02:38:52;20.10;39.50
80701;DHT22;71609;42.630;23.380;2024-01-07T02:41:18;20.10;39.50
80701;DHT22;71609;42.630;23.380;2024-01-07T02:43:45;20.10;39.50
80701;DHT22;71609;42.630;23.380;2024-01-07T02:46:11;20.10;39.50
80701;DHT22;71609;42.630;23.380;2024-01-07T02:48:37;20.10;39.50
80701;DHT22;71609;42.630;23.380;2024-01-07T02:51:02;20.10;39.50
80701;DHT22;71609;42.630;23.380;2024-01-07T02:53:31;20.10;39.50
80701;DHT22;71609;42.630;23.380;2024-01-07T02:55:56;20.10;39.50
80701;DHT22;71609;42.630;23.380;2024-01-07T02:58:22;20.20;39.60
80701;DHT22;71609;42.630;23.380;2024-01-07T03:00:48;20.20;39.60
80701;DHT22;71609;42.630;23.380;2024-01-07T03:03:14;20.10;39.50
80701;DHT22;71609;42.630;23.380;2024-01-07T03:05:39;20.10;39.50
80701;DHT22;71609;42.630;23.380;2024-01-07T03:08:05;20.10;39.50
80701;DHT22;71609;42.630;23.380;2024-01-07T03:10:31;20.10;39.50
80701;DHT22;71609;42.630;23.380;2024-01-07T03:12:57;20.10;39.50
80701;DHT22;71609;42.630;23.380;2024-01-07T03:15:23;20.10;39.60
80701;DHT22;71609;42.630;23.380;2024-01-07T03:17:48;20.20;39.60
80701;DHT22;71609;42.630;23.380;2024-01-07T03:20:14;20.10;39.50
80701;DHT22;71609;42.630;23.380;2024-01-07T03:22:40;20.10;39.60
80701;DHT22;71609;42.630;23.380;2024-01-07T03:25:06;20.10;39.60
80701;DHT22;71609;42.630;23.380;2024-01-07T03:27:32;20.10;39.50
80701;DHT22;71609;42.630;23.380;2024-01-07T03:29:58;20.10;39.60
80701;DHT22;71609;42.630;23.380;2024-01-07T03:32:24;20.10;39.60
80701;DHT22;71609;42.630;23.380;2024-01-07T03:34:49;20.10;39.60
80701;DHT22;71609;42.630;23.380;2024-01-07T03:37:15;20.10;39.60
80701;DHT22;71609;42.630;23.380;2024-01-07T03:39:43;20.10;39.60
80701;DHT22;71609;42.630;23.380;2024-01-07T03:42:09;20.10;39.60
80701;DHT22;71609;42.630;23.380;2024-01-07T03:44:38;20.10;39.60
80701;DHT22;71609;42.630;23.380;2024-01-07T03:47:05;20.10;39.70
80701;DHT22;71609;42.630;23.380;2024-01-07T03:49:30;20.10;39.70
80701;DHT22;71609;42.630;23.380;2024-01-07T03:51:56;20.10;39.70
80701;DHT22;71609;42.630;23.380;2024-01-07T03:54:22;20.10;39.70
80701;DHT22;71609;42.630;23.380;2024-01-07T03:56:48;20.10;39.70
80701;DHT22;71609;42.630;23.380;2024-01-07T03:59:13;20.10;39.70
80701;DHT22;71609;42.630;23.380;2024-01-07T04:01:39;20.10;39.60
80701;DHT22;71609;42.630;23.380;2024-01-07T04:04:05;20.10;39.70
80701;DHT22;71609;42.630;23.380;2024-01-07T04:06:31;20.10;39.60
80701;DHT22;71609;42.630;23.380;2024-01-07T04:08:56;20.10;39.60
80701;DHT22;71609;42.630;23.380;2024-01-07T04:11:22;20.10;39.60
80701;DHT22;71609;42.630;23.380;2024-01-07T04:13:48;20.10;39.60
80701;DHT22;71609;42.630;23.380;2024-01-07T04:16:20;20.10;39.70
80701;DHT22;71609;42.630;23.380;2024-01-07T04:18:47;20.10;39.70
80701;DHT22;71609;42.630;23.380;2024-01-07T04:21:13;20.10;39.70
80701;DHT22;71609;42.630;23.380;2024-01-07T04:23:39;20.10;39.70
80701;DHT22;71609;42.630;23.380;2024-01-07T04:26:07;20.10;39.80
80701;DHT22;71609;42.630;23.380;2024-01-07T04:28:32;20.10;39.80
80701;DHT22;71609;42.630;23.380;2024-01-07T04:30:58;20.10;39.70
80701;DHT22;71609;42.630;23.380;2024-01-07T04:33:24;20.10;39.70
80701;DHT22;71609;42.630;23.380;2024-01-07T04:35:50;20.10;39.70
80701;DHT22;71609;42.630;23.380;2024-01-07T04:38:15;20.10;39.80
80701;DHT22;71609;42.630;23.380;2024-01-07T04:40:41;20.10;39.70
80701;DHT22;71609;42.630;23.380;2024-01-07T04:43:07;20.10;39.70
80701;DHT22;71609;42.630;23.380;2024-01-07T04:45:32;20.10;39.70
80701;DHT22;71609;42.630;23.380;2024-01-07T04:47:58;20.10;39.70
80701;DHT22;71609;42.630;23.380;2024-01-07T04:50:24;20.10;39.80
80701;DHT22;71609;42.630;23.380;2024-01-07T04:52:50;20.10;39.70
80701;DHT22;71609;42.630;23.380;2024-01-07T04:55:16;20.10;39.80
80701;DHT22;71609;42.630;23.380;2024-01-07T04:57:41;20.10;39.70
80701;DHT22;71609;42.630;23.380;2024-01-07T05:00:07;20.10;39.80
80701;DHT22;71609;42.630;23.380;2024-01-07T05:02:33;20.10;39.70
80701;DHT22;71609;42.630;23.380;2024-01-07T05:04:59;20.10;39.70
80701;DHT22;71609;42.630;23.380;2024-01-07T05:07:24;20.10;39.70
80701;DHT22;71609;42.630;23.380;2024-01-07T05:09:50;20.10;39.80
80701;DHT22;71609;42.630;23.380;2024-01-07T05:12:16;20.10;39.80
80701;DHT22;71609;42.630;23.380;2024-01-07T05:14:42;20.10;39.70
80701;DHT22;71609;42.630;23.380;2024-01-07T05:17:09;20.10;39.70
80701;DHT22;71609;42.630;23.380;2024-01-07T05:19:34;20.10;39.70
80701;DHT22;71609;42.630;23.380;2024-01-07T05:22:00;20.10;39.80
80701;DHT22;71609;42.630;23.380;2024-01-07T05:24:26;20.10;39.70
80701;DHT22;71609;42.630;23.380;2024-01-07T05:26:52;20.10;39.70
80701;DHT22;71609;42.630;23.380;2024-01-07T05:29:18;20.10;39.70
80701;DHT22;71609;42.630;23.380;2024-01-07T05:31:44;20.10;39.80
80701;DHT22;71609;42.630;23.380;2024-01-07T05:34:10;20.10;39.80
80701;DHT22;71609;42.630;23.380;2024-01-07T05:36:36;20.10;39.80
80701;DHT22;71609;42.630;23.380;2024-01-07T05:39:02;20.10;39.70
80701;DHT22;71609;42.630;23.380;2024-01-07T05:41:28;20.10;39.70
80701;DHT22;71609;42.630;23.380;2024-01-07T05:43:54;20.10;39.80
80701;DHT22;71609;42.630;23.380;2024-01-07T05:46:19;20.10;39.80
80701;DHT22;71609;42.630;23.380;2024-01-07T05:48:47;20.10;39.80
80701;DHT22;71609;42.630;23.380;2024-01-07T05:51:13;20.10;39.90
80701;DHT22;71609;42.630;23.380;2024-01-07T05:53:40;20.10;39.90
80701;DHT22;71609;42.630;23.380;2024-01-07T05:56:07;20.10;39.80
80701;DHT22;71609;42.630;23.380;2024-01-07T05:58:32;20.10;39.80
80701;DHT22;71609;42.630;23.380;2024-01-07T06:00:58;20.10;39.90
80701;DHT22;71609;42.630;23.380;2024-01-07T06:03:24;20.10;39.80
80701;DHT22;71609;42.630;23.380;2024-01-07T06:05:50;20.10;39.80
80701;DHT22;71609;42.630;23.380;2024-01-07T06:08:15;20.10;39.80
80701;DHT22;71609;42.630;23.380;2024-01-07T06:10:41;20.10;39.90
80701;DHT22;71609;42.630;23.380;2024-01-07T06:13:07;20.10;39.80
80701;DHT22;71609;42.630;23.380;2024-01-07T06:15:33;20.10;39.80
80701;DHT22;71609;42.630;23.380;2024-01-07T06:17:58;20.10;39.80
80701;DHT22;71609;42.630;23.380;2024-01-07T06:20:24;20.10;39.90
80701;DHT22;71609;42.630;23.380;2024-01-07T06:22:50;20.10;39.90
80701;DHT22;71609;42.630;23.380;2024-01-07T06:25:16;20.10;39.80
80701;DHT22;71609;42.630;23.380;2024-01-07T06:27:42;20.00;39.80
80701;DHT22;71609;42.630;23.380;2024-01-07T06:30:08;20.10;39.80
80701;DHT22;71609;42.630;23.380;2024-01-07T06:32:34;20.10;39.90
80701;DHT22;71609;42.630;23.380;2024-01-07T06:35:01;20.10;39.90
80701;DHT22;71609;42.630;23.380;2024-01-07T06:37:28;20.10;39.90
80701;DHT22;71609;42.630;23.380;2024-01-07T06:39:56;20.10;39.90
80701;DHT22;71609;42.630;23.380;2024-01-07T06:42:22;20.10;39.90
80701;DHT22;71609;42.630;23.380;2024-01-07T06:44:48;20.10;39.90
80701;DHT22;71609;42.630;23.380;2024-01-07T06:47:13;20.10;40.00
80701;DHT22;71609;42.630;23.380;2024-01-07T06:49:40;20.10;39.90
80701;DHT22;71609;42.630;23.380;2024-01-07T06:52:05;20.10;39.90
80701;DHT22;71609;42.630;23.380;2024-01-07T06:54:31;20.10;40.00
80701;DHT22;71609;42.630;23.380;2024-01-07T06:56:57;20.10;40.00
80701;DHT22;71609;42.630;23.380;2024-01-07T06:59:23;20.10;40.00
80701;DHT22;71609;42.630;23.380;2024-01-07T07:01:48;20.10;40.00
80701;DHT22;71609;42.630;23.380;2024-01-07T07:04:14;20.00;39.90
80701;DHT22;71609;42.630;23.380;2024-01-07T07:06:40;20.00;39.90
80701;DHT22;71609;42.630;23.380;2024-01-07T07:09:06;20.00;40.00
80701;DHT22;71609;42.630;23.380;2024-01-07T07:11:32;20.10;40.00
80701;DHT22;71609;42.630;23.380;2024-01-07T07:13:58;20.00;39.90
80701;DHT22;71609;42.630;23.380;2024-01-07T07:16:23;20.00;40.00
80701;DHT22;71609;42.630;23.380;2024-01-07T07:18:49;20.10;40.00
80701;DHT22;71609;42.630;23.380;2024-01-07T07:21:15;20.10;40.00
80701;DHT22;71609;42.630;23.380;2024-01-07T07:23:40;20.10;40.00
80701;DHT22;71609;42.630;23.380;2024-01-07T07:26:06;20.10;40.00
80701;DHT22;71609;42.630;23.380;2024-01-07T07:28:33;20.10;40.00
80701;DHT22;71609;42.630;23.380;2024-01-07T07:30:59;20.10;40.00
80701;DHT22;71609;42.630;23.380;2024-01-07T07:33:25;20.10;40.00
80701;DHT22;71609;42.630;23.380;2024-01-07T07:35:51;20.00;40.00
80701;DHT22;71609;42.630;23.380;2024-01-07T07:38:16;20.10;40.00
80701;DHT22;71609;42.630;23.380;2024-01-07T07:40:42;20.10;40.00
80701;DHT22;71609;42.630;23.380;2024-01-07T07:43:09;20.10;40.00
80701;DHT22;71609;42.630;23.380;2024-01-07T07:45:35;20.10;41.20
80701;DHT22;71609;42.630;23.380;2024-01-07T07:48:00;20.10;40.10
80701;DHT22;71609;42.630;23.380;2024-01-07T07:50:26;20.10;40.00
80701;DHT22;71609;42.630;23.380;2024-01-07T07:52:52;20.10;40.00
80701;DHT22;71609;42.630;23.380;2024-01-07T07:55:19;20.10;40.10
80701;DHT22;71609;42.630;23.380;2024-01-07T07:57:45;20.10;40.00
80701;DHT22;71609;42.630;23.380;2024-01-07T08:00:12;20.10;40.10
80701;DHT22;71609;42.630;23.380;2024-01-07T08:02:38;20.10;40.10
80701;DHT22;71609;42.630;23.380;2024-01-07T08:05:06;20.00;40.10
80701;DHT22;71609;42.630;23.380;2024-01-07T08:07:32;20.10;40.10
80701;DHT22;71609;42.630;23.380;2024-01-07T08:09:57;20.10;40.10
80701;DHT22;71609;42.630;23.380;2024-01-07T08:12:23;20.10;40.10
80701;DHT22;71609;42.630;23.380;2024-01-07T08:14:49;20.10;40.10
80701;DHT22;71609;42.630;23.380;2024-01-07T08:17:15;20.10;40.10
80701;DHT22;71609;42.630;23.380;2024-01-07T08:19:41;20.00;40.20
80701;DHT22;71609;42.630;23.380;2024-01-07T08:22:07;20.10;40.10
80701;DHT22;71609;42.630;23.380;2024-01-07T08:24:34;20.10;40.20
80701;DHT22;71609;42.630;23.380;2024-01-07T08:27:01;20.10;40.10
80701;DHT22;71609;42.630;23.380;2024-01-07T08:29:28;20.10;40.10
80701;DHT22;71609;42.630;23.380;2024-01-07T08:31:55;20.10;40.20
80701;DHT22;71609;42.630;23.380;2024-01-07T08:34:20;20.10;40.10
80701;DHT22;71609;42.630;23.380;2024-01-07T08:36:46;20.10;40.10
80701;DHT22;71609;42.630;23.380;2024-01-07T08:39:14;20.10;40.10
80701;DHT22;71609;42.630;23.380;2024-01-07T08:41:40;20.10;40.10
80701;DHT22;71609;42.630;23.380;2024-01-07T08:44:06;20.10;40.10
80701;DHT22;71609;42.630;23.380;2024-01-07T08:46:34;20.10;40.10
80701;DHT22;71609;42.630;23.380;2024-01-07T08:49:00;20.10;40.00
80701;DHT22;71609;42.630;23.380;2024-01-07T08:51:25;20.10;41.20
80701;DHT22;71609;42.630;23.380;2024-01-07T08:53:51;20.10;40.10
80701;DHT22;71609;42.630;23.380;2024-01-07T08:56:17;20.10;40.10
80701;DHT22;71609;42.630;23.380;2024-01-07T08:58:43;20.10;40.10
80701;DHT22;71609;42.630;23.380;2024-01-07T09:01:09;20.10;40.10
80701;DHT22;71609;42.630;23.380;2024-01-07T09:03:35;20.10;40.10
80701;DHT22;71609;42.630;23.380;2024-01-07T09:06:00;20.10;40.10
80701;DHT22;71609;42.630;23.380;2024-01-07T09:08:26;20.10;40.10
80701;DHT22;71609;42.630;23.380;2024-01-07T09:10:52;20.10;40.20
80701;DHT22;71609;42.630;23.380;2024-01-07T09:13:19;20.00;40.10
80701;DHT22;71609;42.630;23.380;2024-01-07T09:15:45;20.10;40.30
80701;DHT22;71609;42.630;23.380;2024-01-07T09:18:11;20.00;40.30
80701;DHT22;71609;42.630;23.380;2024-01-07T09:20:37;20.00;40.30
80701;DHT22;71609;42.630;23.380;2024-01-07T09:23:02;20.00;40.50
80701;DHT22;71609;42.630;23.380;2024-01-07T09:25:28;20.00;40.40
80701;DHT22;71609;42.630;23.380;2024-01-07T09:27:54;20.00;40.40
80701;DHT22;71609;42.630;23.380;2024-01-07T09:30:20;20.10;40.40
80701;DHT22;71609;42.630;23.380;2024-01-07T09:32:46;20.10;40.40
80701;DHT22;71609;42.630;23.380;2024-01-07T09:35:11;20.10;40.30
80701;DHT22;71609;42.630;23.380;2024-01-07T09:37:37;20.10;40.30
80701;DHT22;71609;42.630;23.380;2024-01-07T09:40:03;20.10;40.40
80701;DHT22;71609;42.630;23.380;2024-01-07T09:42:32;20.10;41.50
80701;DHT22;71609;42.630;23.380;2024-01-07T09:45:03;20.10;40.40
80701;DHT22;71609;42.630;23.380;2024-01-07T09:47:30;20.10;40.40
80701;DHT22;71609;42.630;23.380;2024-01-07T09:49:56;20.10;40.40
80701;DHT22;71609;42.630;23.380;2024-01-07T09:52:22;20.10;40.30
80701;DHT22;71609;42.630;23.380;2024-01-07T09:54:51;20.10;40.20
80701;DHT22;71609;42.630;23.380;2024-01-07T09:57:18;20.10;40.20
80701;DHT22;71609;42.630;23.380;2024-01-07T09:59:45;20.10;40.20
80701;DHT22;71609;42.630;23.380;2024-01-07T10:02:12;20.10;40.30
80701;DHT22;71609;42.630;23.380;2024-01-07T10:04:38;20.10;40.20
80701;DHT22;71609;42.630;23.380;2024-01-07T10:07:03;20.10;40.20
80701;DHT22;71609;42.630;23.380;2024-01-07T10:09:32;20.10;40.20
80701;DHT22;71609;42.630;23.380;2024-01-07T10:11:58;20.10;40.20
80701;DHT22;71609;42.630;23.380;2024-01-07T10:14:24;20.10;40.30
80701;DHT22;71609;42.630;23.380;2024-01-07T10:16:54;20.10;40.20
80701;DHT22;71609;42.630;23.380;2024-01-07T10:19:23;20.10;40.20
80701;DHT22;71609;42.630;23.380;2024-01-07T10:22:03;20.10;40.20
80701;DHT22;71609;42.630;23.380;2024-01-07T10:24:37;20.10;40.20
80701;DHT22;71609;42.630;23.380;2024-01-07T10:27:06;20.10;40.20
80701;DHT22;71609;42.630;23.380;2024-01-07T10:29:32;20.10;40.20
80701;DHT22;71609;42.630;23.380;2024-01-07T10:31:59;20.10;40.30
80701;DHT22;71609;42.630;23.380;2024-01-07T10:34:30;20.10;40.30
80701;DHT22;71609;42.630;23.380;2024-01-07T10:36:59;20.10;40.20
80701;DHT22;71609;42.630;23.380;2024-01-07T10:39:26;20.10;40.30
80701;DHT22;71609;42.630;23.380;2024-01-07T10:41:58;20.10;40.20
80701;DHT22;71609;42.630;23.380;2024-01-07T10:44:25;20.10;40.20
80701;DHT22;71609;42.630;23.380;2024-01-07T10:46:54;20.20;40.30
80701;DHT22;71609;42.630;23.380;2024-01-07T10:49:20;20.10;40.20
80701;DHT22;71609;42.630;23.380;2024-01-07T10:52:04;20.20;40.30
80701;DHT22;71609;42.630;23.380;2024-01-07T10:54:31;20.20;40.20
80701;DHT22;71609;42.630;23.380;2024-01-07T10:57:00;20.20;40.20
80701;DHT22;71609;42.630;23.380;2024-01-07T10:59:33;20.20;40.20
80701;DHT22;71609;42.630;23.380;2024-01-07T11:01:59;20.20;40.20
80701;DHT22;71609;42.630;23.380;2024-01-07T11:04:43;20.20;40.20
80701;DHT22;71609;42.630;23.380;2024-01-07T11:07:35;20.20;41.30
80701;DHT22;71609;42.630;23.380;2024-01-07T11:10:18;20.20;40.30
80701;DHT22;71609;42.630;23.380;2024-01-07T11:12:55;20.20;40.20
80701;DHT22;71609;42.630;23.380;2024-01-07T11:18:22;20.20;40.20
80701;DHT22;71609;42.630;23.380;2024-01-07T11:20:50;20.20;40.10
80701;DHT22;71609;42.630;23.380;2024-01-07T11:23:27;20.20;40.10
80701;DHT22;71609;42.630;23.380;2024-01-07T11:25:59;20.20;40.10
80701;DHT22;71609;42.630;23.380;2024-01-07T11:28:50;20.30;40.10
80701;DHT22;71609;42.630;23.380;2024-01-07T11:31:21;20.30;40.10
80701;DHT22;71609;42.630;23.380;2024-01-07T11:33:50;20.30;40.10
80701;DHT22;71609;42.630;23.380;2024-01-07T11:36:17;20.20;40.00
80701;DHT22;71609;42.630;23.380;2024-01-07T11:38:44;20.20;40.00
80701;DHT22;71609;42.630;23.380;2024-01-07T11:41:14;20.30;40.10
80701;DHT22;71609;42.630;23.380;2024-01-07T11:43:57;20.30;40.00
80701;DHT22;71609;42.630;23.380;2024-01-07T11:46:25;20.30;40.10
80701;DHT22;71609;42.630;23.380;2024-01-07T11:48:56;20.30;40.00
80701;DHT22;71609;42.630;23.380;2024-01-07T11:51:33;20.30;40.00
80701;DHT22;71609;42.630;23.380;2024-01-07T11:54:01;20.30;39.90
80701;DHT22;71609;42.630;23.380;2024-01-07T11:56:28;20.30;39.80
80701;DHT22;71609;42.630;23.380;2024-01-07T11:58:54;20.30;41.00
80701;DHT22;71609;42.630;23.380;2024-01-07T12:01:23;20.30;39.80
80701;DHT22;71609;42.630;23.380;2024-01-07T12:03:49;20.30;39.90
80701;DHT22;71609;42.630;23.380;2024-01-07T12:06:15;20.30;39.90
80701;DHT22;71609;42.630;23.380;2024-01-07T12:08:42;20.30;39.80
80701;DHT22;71609;42.630;23.380;2024-01-07T12:11:12;20.30;39.90
80701;DHT22;71609;42.630;23.380;2024-01-07T12:13:39;20.30;39.80
80701;DHT22;71609;42.630;23.380;2024-01-07T12:16:06;20.40;39.90
80701;DHT22;71609;42.630;23.380;2024-01-07T12:18:32;20.30;39.80
80701;DHT22;71609;42.630;23.380;2024-01-07T12:20:59;20.40;39.80
80701;DHT22;71609;42.630;23.380;2024-01-07T12:23:26;20.40;39.80
80701;DHT22;71609;42.630;23.380;2024-01-07T12:25:53;20.40;39.80
80701;DHT22;71609;42.630;23.380;2024-01-07T12:28:19;20.40;39.80
80701;DHT22;71609;42.630;23.380;2024-01-07T12:30:48;20.40;39.70
80701;DHT22;71609;42.630;23.380;2024-01-07T12:33:18;20.40;39.80
80701;DHT22;71609;42.630;23.380;2024-01-07T12:35:46;20.40;39.70
80701;DHT22;71609;42.630;23.380;2024-01-07T12:38:12;20.40;39.70
80701;DHT22;71609;42.630;23.380;2024-01-07T12:40:38;20.40;39.80
80701;DHT22;71609;42.630;23.380;2024-01-07T12:43:05;20.40;39.80
80701;DHT22;71609;42.630;23.380;2024-01-07T12:45:33;20.30;39.70
80701;DHT22;71609;42.630;23.380;2024-01-07T12:47:59;20.30;39.80
80701;DHT22;71609;42.630;23.380;2024-01-07T12:50:28;20.30;39.80
80701;DHT22;71609;42.630;23.380;2024-01-07T12:52:55;20.30;39.80
80701;DHT22;71609;42.630;23.380;2024-01-07T12:55:21;20.30;39.80
80701;DHT22;71609;42.630;23.380;2024-01-07T12:57:47;20.30;40.80
80701;DHT22;71609;42.630;23.380;2024-01-07T13:00:13;20.30;39.80
80701;DHT22;71609;42.630;23.380;2024-01-07T13:02:39;20.30;39.80
80701;DHT22;71609;42.630;23.380;2024-01-07T13:05:06;20.30;39.80
80701;DHT22;71609;42.630;23.380;2024-01-07T13:07:32;20.30;39.80
80701;DHT22;71609;42.630;23.380;2024-01-07T13:09:58;20.30;39.90
80701;DHT22;71609;42.630;23.380;2024-01-07T13:12:24;20.30;40.00
80701;DHT22;71609;42.630;23.380;2024-01-07T13:14:50;20.30;40.00
80701;DHT22;71609;42.630;23.380;2024-01-07T13:17:16;20.30;39.90
80701;DHT22;71609;42.630;23.380;2024-01-07T13:19:41;20.30;39.90
80701;DHT22;71609;42.630;23.380;2024-01-07T13:22:08;20.30;39.90
80701;DHT22;71609;42.630;23.380;2024-01-07T13:24:34;20.30;39.90
80701;DHT22;71609;42.630;23.380;2024-01-07T13:27:01;20.30;40.00
80701;DHT22;71609;42.630;23.380;2024-01-07T13:29:26;20.30;40.00
80701;DHT22;71609;42.630;23.380;2024-01-07T13:31:52;20.30;40.00
80701;DHT22;71609;42.630;23.380;2024-01-07T13:34:18;20.30;39.90
80701;DHT22;71609;42.630;23.380;2024-01-07T13:36:44;20.30;39.90
80701;DHT22;71609;42.630;23.380;2024-01-07T13:39:10;20.30;40.00
80701;DHT22;71609;42.630;23.380;2024-01-07T13:41:36;20.30;39.90
80701;DHT22;71609;42.630;23.380;2024-01-07T13:44:02;20.30;40.00
80701;DHT22;71609;42.630;23.380;2024-01-07T13:46:29;20.30;39.90
80701;DHT22;71609;42.630;23.380;2024-01-07T13:48:55;20.30;40.00
80701;DHT22;71609;42.630;23.380;2024-01-07T13:51:21;20.30;40.00
80701;DHT22;71609;42.630;23.380;2024-01-07T13:53:46;20.30;40.00
80701;DHT22;71609;42.630;23.380;2024-01-07T13:56:12;20.30;40.00
80701;DHT22;71609;42.630;23.380;2024-01-07T13:58:39;20.30;40.10
80701;DHT22;71609;42.630;23.380;2024-01-07T14:01:04;20.30;40.10
80701;DHT22;71609;42.630;23.380;2024-01-07T14:03:33;20.30;40.00
80701;DHT22;71609;42.630;23.380;2024-01-07T14:05:59;20.30;40.10
80701;DHT22;71609;42.630;23.380;2024-01-07T14:08:28;20.30;40.00
80701;DHT22;71609;42.630;23.380;2024-01-07T14:10:54;20.20;40.00
80701;DHT22;71609;42.630;23.380;2024-01-07T14:13:20;20.30;40.10
80701;DHT22;71609;42.630;23.380;2024-01-07T14:15:46;20.30;40.10
80701;DHT22;71609;42.630;23.380;2024-01-07T14:18:12;20.30;40.00
80701;DHT22;71609;42.630;23.380;2024-01-07T14:20:41;20.20;40.00
80701;DHT22;71609;42.630;23.380;2024-01-07T14:23:07;20.30;40.10
80701;DHT22;71609;42.630;23.380;2024-01-07T14:25:33;20.30;40.10
80701;DHT22;71609;42.630;23.380;2024-01-07T14:27:59;20.30;40.20
80701;DHT22;71609;42.630;23.380;2024-01-07T14:30:24;20.30;40.20
80701;DHT22;71609;42.630;23.380;2024-01-07T14:32:50;20.30;40.10
80701;DHT22;71609;42.630;23.380;2024-01-07T14:35:16;20.30;40.20
80701;DHT22;71609;42.630;23.380;2024-01-07T14:37:42;20.20;40.20
80701;DHT22;71609;42.630;23.380;2024-01-07T14:40:08;20.20;40.10
80701;DHT22;71609;42.630;23.380;2024-01-07T14:42:34;20.30;40.20
80701;DHT22;71609;42.630;23.380;2024-01-07T14:44:59;20.30;40.10
80701;DHT22;71609;42.630;23.380;2024-01-07T14:47:25;20.20;40.10
80701;DHT22;71609;42.630;23.380;2024-01-07T14:49:51;20.20;40.10
80701;DHT22;71609;42.630;23.380;2024-01-07T14:52:17;20.20;40.10
80701;DHT22;71609;42.630;23.380;2024-01-07T14:54:42;20.30;41.20
80701;DHT22;71609;42.630;23.380;2024-01-07T14:57:08;20.20;40.10
80701;DHT22;71609;42.630;23.380;2024-01-07T14:59:35;20.20;40.10
80701;DHT22;71609;42.630;23.380;2024-01-07T15:02:04;20.20;40.10
80701;DHT22;71609;42.630;23.380;2024-01-07T15:04:29;20.20;40.20
80701;DHT22;71609;42.630;23.380;2024-01-07T15:06:58;20.20;40.20
80701;DHT22;71609;42.630;23.380;2024-01-07T15:09:24;20.20;41.30
80701;DHT22;71609;42.630;23.380;2024-01-07T15:11:50;20.20;40.20
80701;DHT22;71609;42.630;23.380;2024-01-07T15:14:16;20.20;40.20